Time;durP1;ratioP1;P1;durP2;ratioP2;P2;SDS_P1;SDS_P2;PMS_P1;PMS_P2;Temp;Humidity;BMP_temperature;BMP_pressure;BME280_temperature;BME280_humidity;BME280_pressure;Samples;Min_cycle;Max_cycle;Signal;HPM_P1;HPM_P2
2023/11/08 00:01:16;;;;;;;13.32;6.18;;;9.30;99.90;;;;;;4875521;29;20510;-61
2023/11/08 00:03:42;;;;;;;13.57;5.85;;;9.40;99.90;;;;;;4860083;29;20620;-60
2023/11/08 00:06:08;;;;;;;9.77;5.68;;;9.30;99.90;;;;;;4861233;29;20228;-59
2023/11/08 00:08:34;;;;;;;8.00;6.00;;;9.40;99.90;;;;;;4860802;29;20233;-61
2023/11/08 00:11:00;;;;;;;11.70;5.25;;;9.30;99.90;;;;;;4859942;29;20635;-60
2023/11/08 00:13:27;;;;;;;9.35;5.45;;;9.30;99.90;;;;;;4860485;29;20663;-59
2023/11/08 00:15:53;;;;;;;7.22;5.32;;;9.30;99.90;;;;;;4861301;29;20250;-61
2023/11/08 00:18:19;;;;;;;9.68;5.40;;;9.40;99.90;;;;;;4861018;29;20189;-60
2023/11/08 00:20:45;;;;;;;9.52;5.78;;;9.30;99.90;;;;;;4875150;29;20186;-60
2023/11/08 00:23:11;;;;;;;9.25;4.80;;;9.40;99.90;;;;;;4861020;29;20190;-59
2023/11/08 00:25:37;;;;;;;7.47;5.20;;;9.40;99.90;;;;;;4861079;29;20217;-61
2023/11/08 00:28:03;;;;;;;8.25;4.90;;;9.40;99.90;;;;;;4860870;29;20194;-60
2023/11/08 00:30:29;;;;;;;8.38;4.45;;;9.40;99.90;;;;;;4860768;29;20189;-60
2023/11/08 00:32:55;;;;;;;9.45;5.28;;;9.40;99.90;;;;;;4860744;29;20202;-60
2023/11/08 00:35:21;;;;;;;7.15;4.78;;;9.50;99.90;;;;;;4860524;29;20193;-59
2023/11/08 00:37:47;;;;;;;7.80;4.63;;;9.50;99.90;;;;;;4860428;29;20642;-60
2023/11/08 00:40:13;;;;;;;8.38;5.20;;;9.50;99.90;;;;;;4860680;29;20186;-61
2023/11/08 00:42:40;;;;;;;10.20;5.72;;;9.50;99.90;;;;;;4859787;29;20273;-60
2023/11/08 00:45:07;;;;;;;11.25;5.97;;;9.50;99.90;;;;;;4860362;29;20313;-60
2023/11/08 00:47:32;;;;;;;10.02;6.05;;;9.50;99.90;;;;;;4859217;29;20194;-60
2023/11/08 00:49:59;;;;;;;9.88;5.88;;;9.50;99.90;;;;;;4860146;29;20239;-62
2023/11/08 00:52:25;;;;;;;10.52;6.40;;;9.50;99.90;;;;;;4859353;29;20568;-61
2023/11/08 00:54:51;;;;;;;9.13;6.07;;;9.50;99.90;;;;;;4874942;29;20187;-61
2023/11/08 00:57:17;;;;;;;11.73;6.75;;;9.50;99.90;;;;;;4860155;29;20650;-60
2023/11/08 00:59:43;;;;;;;8.45;6.60;;;9.50;99.90;;;;;;4860468;29;20712;-61
2023/11/08 01:02:09;;;;;;;11.07;7.15;;;9.50;99.90;;;;;;4859313;29;20182;-60
2023/11/08 01:04:35;;;;;;;14.68;8.43;;;9.50;99.90;;;;;;4860153;29;20590;-60
2023/11/08 01:07:01;;;;;;;16.60;9.02;;;9.50;99.90;;;;;;4858738;29;20238;-60
2023/11/08 01:09:27;;;;;;;13.63;9.57;;;9.50;99.90;;;;;;4859857;29;20237;-61
2023/11/08 01:11:54;;;;;;;15.45;10.02;;;9.50;99.90;;;;;;4860577;29;20524;-59
2023/11/08 01:14:21;;;;;;;15.95;10.93;;;9.50;99.90;;;;;;4860166;29;20189;-59
2023/11/08 01:16:46;;;;;;;17.77;11.10;;;9.50;99.90;;;;;;4860012;29;20193;-61
2023/11/08 01:19:12;;;;;;;16.38;11.07;;;9.50;99.90;;;;;;4860295;29;20194;-60
2023/11/08 01:21:40;;;;;;;20.08;12.13;;;9.50;99.90;;;;;;4858979;29;20519;-60
2023/11/08 01:24:06;;;;;;;18.02;11.98;;;9.60;99.90;;;;;;4860215;29;20186;-59
2023/11/08 01:26:32;;;;;;;18.40;12.38;;;9.60;99.90;;;;;;4860355;29;20276;-60
2023/11/08 01:28:59;;;;;;;19.67;12.80;;;9.60;99.90;;;;;;4858869;29;20631;-60
2023/11/08 01:31:25;;;;;;;18.20;12.95;;;9.60;99.90;;;;;;4860349;29;20242;-59
2023/11/08 01:33:50;;;;;;;19.27;13.13;;;9.60;99.90;;;;;;4860160;29;20194;-59
2023/11/08 01:36:16;;;;;;;21.95;14.25;;;9.60;99.90;;;;;;4859872;29;20246;-60
2023/11/08 01:38:45;;;;;;;22.92;13.50;;;9.50;99.90;;;;;;4859855;29;20194;-61
2023/11/08 01:41:12;;;;;;;21.38;13.50;;;9.50;99.90;;;;;;4860193;29;20331;-60
2023/11/08 01:43:38;;;;;;;25.90;14.20;;;9.60;99.90;;;;;;4859980;29;20194;-59
2023/11/08 01:46:12;;;;;;;21.17;14.13;;;9.60;99.90;;;;;;4858762;29;20277;-60
2023/11/08 01:48:42;;;;;;;26.95;14.65;;;9.60;99.90;;;;;;4860290;29;20588;-59
2023/11/08 01:51:09;;;;;;;20.23;14.00;;;9.60;99.90;;;;;;4858907;29;20190;-58
2023/11/08 01:53:40;;;;;;;24.92;15.02;;;9.60;99.90;;;;;;4874545;29;20186;-59
2023/11/08 01:56:07;;;;;;;23.02;15.00;;;9.50;99.90;;;;;;4873872;29;20179;-59
2023/11/08 01:58:38;;;;;;;25.80;15.38;;;9.50;99.90;;;;;;4859850;29;20235;-60
2023/11/08 02:01:07;;;;;;;24.48;16.60;;;9.60;99.90;;;;;;4874049;29;20257;-59
2023/11/08 02:03:36;;;;;;;27.20;16.13;;;9.60;99.90;;;;;;4858390;29;20238;-59
2023/11/08 02:06:04;;;;;;;26.27;15.45;;;9.60;99.90;;;;;;4859421;29;20232;-60
2023/11/08 02:08:30;;;;;;;20.83;15.13;;;9.60;99.90;;;;;;4874251;29;20583;-62
2023/11/08 02:10:58;;;;;;;31.77;16.42;;;9.50;99.90;;;;;;4874299;29;20192;-60
2023/11/08 02:13:24;;;;;;;30.50;17.10;;;9.60;99.90;;;;;;4873934;29;20603;-59
2023/11/08 02:15:50;;;;;;;23.75;15.95;;;9.60;99.90;;;;;;4858466;29;20194;-61
2023/11/08 02:18:16;;;;;;;28.27;16.65;;;9.60;99.90;;;;;;4859841;29;20187;-58
2023/11/08 02:20:43;;;;;;;29.35;16.10;;;9.60;99.90;;;;;;4875747;29;20194;-59
2023/11/08 02:23:10;;;;;;;27.95;16.77;;;9.60;99.90;;;;;;4863058;29;20186;-59
2023/11/08 02:25:38;;;;;;;25.40;16.25;;;9.60;99.90;;;;;;4861992;29;20308;-60
2023/11/08 02:28:04;;;;;;;34.30;17.27;;;9.50;99.90;;;;;;4862942;29;20190;-59
2023/11/08 02:30:30;;;;;;;25.98;16.42;;;9.60;99.90;;;;;;4846606;29;20190;-59
2023/11/08 02:32:56;;;;;;;22.15;15.57;;;9.60;99.90;;;;;;4861930;29;20510;-60
2023/11/08 02:35:22;;;;;;;29.50;15.55;;;9.50;99.90;;;;;;4862786;29;20639;-60
2023/11/08 02:37:48;;;;;;;22.77;14.90;;;9.60;99.90;;;;;;4862716;29;20190;-60
2023/11/08 02:40:14;;;;;;;23.08;15.23;;;9.60;99.90;;;;;;4861658;29;20213;-60
2023/11/08 02:42:45;;;;;;;22.83;14.50;;;9.60;99.90;;;;;;4876874;29;20216;-60
2023/11/08 02:45:12;;;;;;;24.02;16.15;;;9.60;99.90;;;;;;4861136;29;20237;-60
2023/11/08 02:47:39;;;;;;;22.42;15.68;;;9.60;99.90;;;;;;4862196;29;20234;-60
2023/11/08 02:50:06;;;;;;;28.90;16.15;;;9.60;99.90;;;;;;4862572;29;20269;-59
2023/11/08 02:52:32;;;;;;;23.50;15.02;;;9.60;99.90;;;;;;4862604;29;20182;-59
2023/11/08 02:54:59;;;;;;;26.83;16.20;;;9.60;99.90;;;;;;4862113;29;20199;-59
2023/11/08 02:57:26;;;;;;;20.55;14.82;;;9.60;99.90;;;;;;4861229;29;20264;-60
2023/11/08 02:59:52;;;;;;;24.20;15.43;;;9.60;99.90;;;;;;4861974;29;20620;-60
2023/11/08 03:02:20;;;;;;;20.10;14.77;;;9.60;99.90;;;;;;4862033;29;20278;-59
2023/11/08 03:04:46;;;;;;;22.27;14.80;;;9.60;99.90;;;;;;4862460;29;20225;-59
2023/11/08 03:07:12;;;;;;;25.05;15.20;;;9.60;99.90;;;;;;4876047;29;20285;-64
2023/11/08 03:09:39;;;;;;;21.02;13.43;;;9.60;99.90;;;;;;4862299;29;20186;-59
2023/11/08 03:12:05;;;;;;;22.15;14.45;;;9.60;99.90;;;;;;4861877;29;20185;-59
2023/11/08 03:14:31;;;;;;;21.05;15.23;;;9.60;99.90;;;;;;4876141;29;20280;-59
2023/11/08 03:17:00;;;;;;;28.00;16.45;;;9.60;99.90;;;;;;4861767;29;20266;-61
2023/11/08 03:19:26;;;;;;;25.67;17.05;;;9.60;99.90;;;;;;4876036;29;20241;-60
2023/11/08 03:21:54;;;;;;;23.00;15.90;;;9.60;99.90;;;;;;4875992;29;20273;-60
2023/11/08 03:24:20;;;;;;;22.48;15.57;;;9.60;99.90;;;;;;4875851;29;20200;-60
2023/11/08 03:26:49;;;;;;;27.80;15.05;;;9.60;99.90;;;;;;4861919;29;20579;-60
2023/11/08 03:29:17;;;;;;;20.10;13.52;;;9.60;99.90;;;;;;4860423;29;20249;-61
2023/11/08 03:31:43;;;;;;;18.80;12.82;;;9.60;99.90;;;;;;4861136;29;20186;-60
2023/11/08 03:34:10;;;;;;;20.35;12.68;;;9.50;99.90;;;;;;4860739;29;20204;-59
2023/11/08 03:36:37;;;;;;;20.80;12.45;;;9.50;99.90;;;;;;4861240;29;20248;-60
2023/11/08 03:39:09;;;;;;;23.48;12.25;;;9.50;99.90;;;;;;4861378;29;20190;-60
2023/11/08 03:41:38;;;;;;;15.25;12.05;;;9.50;99.90;;;;;;4861830;29;20257;-62
2023/11/08 03:44:05;;;;;;;20.65;12.48;;;9.50;99.90;;;;;;4860348;29;20186;-60
2023/11/08 03:46:31;;;;;;;19.73;11.68;;;9.40;99.90;;;;;;4861097;29;20277;-62
2023/11/08 03:48:58;;;;;;;19.65;12.35;;;9.40;99.90;;;;;;4875869;29;20190;-61
2023/11/08 03:51:28;;;;;;;27.08;13.70;;;9.30;99.90;;;;;;4861359;29;20198;-61
2023/11/08 03:53:54;;;;;;;25.45;13.13;;;9.30;99.90;;;;;;4861331;29;20224;-62
2023/11/08 03:56:21;;;;;;;22.30;14.07;;;9.20;99.90;;;;;;4861389;29;20186;-61
2023/11/08 03:58:47;;;;;;;22.30;14.25;;;9.20;99.90;;;;;;4861342;29;20660;-60
2023/11/08 04:01:13;;;;;;;25.00;14.32;;;9.20;99.90;;;;;;4861315;29;20197;-61
2023/11/08 04:03:39;;;;;;;29.58;14.85;;;9.20;99.90;;;;;;4859999;29;20227;-62
2023/11/08 04:06:05;;;;;;;23.15;12.63;;;9.20;99.90;;;;;;4875338;29;20218;-60
2023/11/08 04:08:32;;;;;;;23.73;12.20;;;9.20;99.90;;;;;;4860834;29;20229;-62
2023/11/08 04:10:58;;;;;;;18.95;10.00;;;9.20;99.90;;;;;;4860966;29;20218;-61
2023/11/08 04:13:24;;;;;;;17.40;10.18;;;9.20;99.90;;;;;;4860761;29;20258;-61
2023/11/08 04:15:50;;;;;;;16.02;8.13;;;9.20;99.90;;;;;;4861308;29;20223;-60
2023/11/08 04:18:16;;;;;;;16.05;8.02;;;9.10;99.90;;;;;;4860742;29;20190;-61
2023/11/08 04:20:45;;;;;;;16.13;8.10;;;9.10;99.90;;;;;;4860808;29;20185;-61
2023/11/08 04:23:11;;;;;;;12.15;6.40;;;9.10;99.90;;;;;;4860917;29;20651;-61
2023/11/08 04:25:37;;;;;;;13.55;6.38;;;9.10;99.90;;;;;;4860888;29;20217;-61
2023/11/08 04:28:03;;;;;;;11.25;7.28;;;9.10;99.90;;;;;;4859793;29;20216;-63
2023/11/08 04:30:29;;;;;;;17.42;8.00;;;9.10;99.90;;;;;;4860507;29;20258;-61
2023/11/08 04:32:55;;;;;;;15.43;8.52;;;9.10;99.90;;;;;;4860720;29;20217;-60
2023/11/08 04:35:21;;;;;;;20.55;10.85;;;9.20;99.90;;;;;;4860605;29;20237;-62
2023/11/08 04:37:47;;;;;;;19.52;10.57;;;9.20;99.90;;;;;;4861085;29;20217;-61
2023/11/08 04:40:14;;;;;;;17.15;10.57;;;9.30;99.90;;;;;;4860655;29;20267;-62
2023/11/08 04:42:40;;;;;;;20.55;11.32;;;9.30;99.90;;;;;;4860243;29;20194;-63
2023/11/08 04:45:06;;;;;;;23.70;12.00;;;9.40;99.90;;;;;;4860440;29;20249;-61
2023/11/08 04:47:32;;;;;;;22.63;12.45;;;9.30;99.90;;;;;;4859397;29;20189;-61
2023/11/08 04:49:58;;;;;;;21.80;13.30;;;9.40;99.90;;;;;;4860446;29;20194;-60
2023/11/08 04:52:24;;;;;;;21.23;13.32;;;9.40;99.90;;;;;;4859025;29;20186;-61
2023/11/08 04:54:50;;;;;;;23.83;13.82;;;9.40;99.90;;;;;;4860052;29;20193;-61
2023/11/08 04:57:17;;;;;;;24.23;13.55;;;9.40;99.90;;;;;;4860545;29;20209;-62
2023/11/08 04:59:47;;;;;;;21.42;13.63;;;9.40;99.90;;;;;;4860329;29;20182;-63
2023/11/08 05:02:15;;;;;;;22.00;13.95;;;9.30;99.90;;;;;;4860525;29;20190;-63
2023/11/08 05:04:48;;;;;;;24.45;14.73;;;9.30;99.90;;;;;;4859968;29;20296;-62
2023/11/08 05:07:20;;;;;;;26.83;14.88;;;9.30;99.90;;;;;;4860103;29;20667;-60
2023/11/08 05:09:46;;;;;;;29.92;14.77;;;9.30;99.90;;;;;;4860292;29;20170;-63
2023/11/08 05:12:12;;;;;;;29.15;14.90;;;9.30;99.90;;;;;;4860014;29;20178;-62
2023/11/08 05:14:38;;;;;;;25.50;15.40;;;9.30;99.90;;;;;;4860213;29;20186;-63
2023/11/08 05:17:04;;;;;;;34.53;14.88;;;9.30;99.90;;;;;;4860166;29;20194;-63
2023/11/08 05:19:31;;;;;;;22.40;14.32;;;9.30;99.90;;;;;;4859001;29;20186;-62
2023/11/08 05:21:57;;;;;;;28.05;15.80;;;9.30;99.90;;;;;;4874936;29;20189;-62
2023/11/08 05:24:23;;;;;;;26.75;14.80;;;9.30;99.90;;;;;;4858771;29;20273;-62
2023/11/08 05:26:52;;;;;;;27.20;14.73;;;9.20;99.90;;;;;;4859838;29;20269;-62
2023/11/08 05:29:21;;;;;;;27.83;15.70;;;9.20;99.90;;;;;;4859161;29;20190;-62
2023/11/08 05:31:47;;;;;;;30.65;15.73;;;9.20;99.90;;;;;;4860441;29;20559;-63
2023/11/08 05:34:14;;;;;;;29.27;15.93;;;9.10;99.90;;;;;;4859919;29;20217;-64
2023/11/08 05:36:40;;;;;;;30.63;15.88;;;9.10;99.90;;;;;;4859487;29;20202;-63
2023/11/08 05:39:06;;;;;;;26.73;15.48;;;9.10;99.90;;;;;;4858803;29;20213;-61
2023/11/08 05:41:32;;;;;;;25.85;15.43;;;9.00;99.90;;;;;;4859566;29;20611;-63
2023/11/08 05:43:59;;;;;;;26.83;15.80;;;9.00;99.90;;;;;;4859847;29;20182;-61
2023/11/08 05:46:28;;;;;;;28.95;15.10;;;9.00;99.90;;;;;;4858960;29;20222;-61
2023/11/08 05:48:57;;;;;;;29.73;15.52;;;9.00;99.90;;;;;;4858597;29;20508;-62
2023/11/08 05:51:25;;;;;;;26.00;15.20;;;8.90;99.90;;;;;;4860092;29;20635;-63
2023/11/08 05:53:51;;;;;;;24.58;15.57;;;8.90;99.90;;;;;;4859602;29;20188;-63
2023/11/08 05:56:18;;;;;;;27.58;15.93;;;8.90;99.90;;;;;;4862744;29;20259;-63
2023/11/08 05:58:44;;;;;;;25.42;15.38;;;8.80;99.90;;;;;;4863576;29;20193;-62
2023/11/08 06:01:19;;;;;;;28.23;15.45;;;8.80;99.90;;;;;;4861954;29;20712;-61
2023/11/08 06:03:46;;;;;;;29.27;15.32;;;8.80;99.90;;;;;;4862269;29;20239;-62
2023/11/08 06:06:12;;;;;;;30.70;15.77;;;8.80;99.90;;;;;;4863215;29;20217;-61
2023/11/08 06:08:39;;;;;;;27.15;16.40;;;8.80;99.90;;;;;;4863398;29;20646;-61
2023/11/08 06:11:05;;;;;;;28.55;16.25;;;8.80;99.90;;;;;;4863257;29;20198;-61
2023/11/08 06:13:35;;;;;;;32.42;16.92;;;8.80;99.90;;;;;;4862781;29;20178;-62
2023/11/08 06:16:02;;;;;;;29.08;17.10;;;8.80;99.90;;;;;;4863187;29;20209;-61
2023/11/08 06:18:30;;;;;;;33.88;17.33;;;8.80;99.90;;;;;;4861491;29;20198;-61
2023/11/08 06:20:56;;;;;;;32.88;17.05;;;8.80;99.90;;;;;;4862169;29;20197;-61
2023/11/08 06:23:22;;;;;;;30.75;17.75;;;8.80;99.90;;;;;;4877004;29;20182;-61
2023/11/08 06:25:48;;;;;;;32.42;17.95;;;8.80;99.90;;;;;;4862436;29;20610;-63
2023/11/08 06:28:14;;;;;;;29.45;18.35;;;8.80;99.90;;;;;;4862605;29;20209;-62
2023/11/08 06:30:41;;;;;;;34.38;17.75;;;8.80;99.90;;;;;;4863081;29;20363;-63
2023/11/08 06:33:07;;;;;;;33.65;18.98;;;8.80;99.90;;;;;;4861850;29;20691;-61
2023/11/08 06:35:35;;;;;;;34.10;19.83;;;8.80;99.90;;;;;;4862389;29;20549;-62
2023/11/08 06:38:01;;;;;;;30.85;19.67;;;8.80;99.90;;;;;;4862374;29;20300;-61
2023/11/08 06:40:27;;;;;;;39.13;20.90;;;8.80;99.90;;;;;;4862623;29;20205;-61
2023/11/08 06:42:53;;;;;;;42.40;20.88;;;8.80;99.90;;;;;;4876511;29;20247;-64
2023/11/08 06:45:20;;;;;;;35.17;21.65;;;8.80;99.90;;;;;;4861960;29;20759;-61
2023/11/08 06:47:46;;;;;;;37.30;21.90;;;8.80;99.90;;;;;;4860711;29;20182;-61
2023/11/08 06:50:16;;;;;;;37.17;21.30;;;8.80;99.90;;;;;;4862199;29;20662;-60
2023/11/08 06:52:46;;;;;;;37.60;23.10;;;8.80;99.90;;;;;;4876485;29;20182;-60
2023/11/08 06:55:12;;;;;;;37.58;22.27;;;8.80;99.90;;;;;;4860995;29;20194;-61
2023/11/08 06:57:40;;;;;;;38.25;23.08;;;8.80;99.90;;;;;;4862258;29;20190;-62
2023/11/08 07:00:07;;;;;;;37.85;22.58;;;8.80;99.90;;;;;;4861914;29;20182;-62
2023/11/08 07:02:33;;;;;;;43.13;24.17;;;8.90;99.90;;;;;;4861072;29;20190;-62
2023/11/08 07:04:59;;;;;;;41.95;23.17;;;8.90;99.90;;;;;;4862002;29;20225;-64
2023/11/08 07:07:25;;;;;;;42.70;24.50;;;8.90;99.90;;;;;;4860551;29;20238;-60
2023/11/08 07:09:52;;;;;;;36.83;23.48;;;9.00;99.90;;;;;;4861878;29;20182;-60
2023/11/08 07:12:17;;;;;;;41.30;24.13;;;9.00;99.90;;;;;;4861609;29;20212;-57
2023/11/08 07:14:43;;;;;;;41.28;23.35;;;9.00;99.90;;;;;;4875315;29;20616;-60
2023/11/08 07:17:09;;;;;;;37.97;22.58;;;9.00;99.90;;;;;;4861685;29;20186;-63
2023/11/08 07:19:35;;;;;;;42.53;24.85;;;9.00;99.90;;;;;;4860590;29;20274;-61
2023/11/08 07:22:01;;;;;;;45.80;24.33;;;9.00;99.90;;;;;;4860878;29;20664;-61
2023/11/08 07:24:27;;;;;;;43.50;23.98;;;9.00;99.90;;;;;;4861192;29;20265;-62
2023/11/08 07:26:53;;;;;;;44.10;25.23;;;9.00;99.90;;;;;;4861591;29;20699;-63
2023/11/08 07:29:22;;;;;;;44.80;25.02;;;9.00;99.90;;;;;;4860583;29;20182;-61
2023/11/08 07:31:51;;;;;;;42.13;23.20;;;9.10;99.90;;;;;;4861670;29;20217;-63
2023/11/08 07:34:24;;;;;;;40.63;24.15;;;9.10;99.90;;;;;;4861419;29;20246;-61
2023/11/08 07:36:51;;;;;;;44.70;25.55;;;9.10;99.90;;;;;;4861461;29;20581;-66
2023/11/08 07:39:17;;;;;;;40.17;25.40;;;9.10;99.90;;;;;;4875776;29;20249;-63
2023/11/08 07:41:43;;;;;;;43.60;24.27;;;9.20;99.90;;;;;;4875531;29;20209;-62
2023/11/08 07:44:10;;;;;;;44.78;25.38;;;9.20;99.90;;;;;;4859789;29;20659;-62
2023/11/08 07:46:36;;;;;;;43.28;24.85;;;9.20;99.90;;;;;;4859170;29;20230;-63
2023/11/08 07:49:02;;;;;;;40.10;24.77;;;9.30;99.90;;;;;;4861370;29;20266;-60
2023/11/08 07:51:28;;;;;;;39.58;23.70;;;9.30;99.90;;;;;;4860813;29;20183;-62
2023/11/08 07:53:59;;;;;;;40.88;24.23;;;9.30;99.90;;;;;;4861266;29;20257;-64
2023/11/08 07:56:25;;;;;;;37.13;23.88;;;9.40;99.90;;;;;;4861653;29;20276;-62
2023/11/08 07:58:54;;;;;;;43.70;24.25;;;9.40;99.90;;;;;;4861775;29;20209;-60
2023/11/08 08:01:20;;;;;;;36.17;23.80;;;9.50;99.90;;;;;;4859804;29;20192;-62
2023/11/08 08:03:48;;;;;;;38.38;23.13;;;9.60;99.90;;;;;;4860573;29;20250;-61
2023/11/08 08:06:14;;;;;;;35.22;23.15;;;9.60;99.90;;;;;;4860781;29;20210;-61
2023/11/08 08:08:43;;;;;;;37.92;24.15;;;9.70;99.90;;;;;;4860419;29;20242;-63
2023/11/08 08:11:10;;;;;;;38.28;23.95;;;9.70;99.90;;;;;;4860944;29;20185;-63
2023/11/08 08:13:37;;;;;;;39.08;24.08;;;9.70;99.90;;;;;;4874874;29;20242;-62
2023/11/08 08:16:04;;;;;;;39.75;22.98;;;9.80;99.90;;;;;;4861336;29;20209;-62
2023/11/08 08:18:31;;;;;;;40.10;24.10;;;9.80;99.90;;;;;;4860675;29;20189;-61
2023/11/08 08:20:57;;;;;;;39.30;23.75;;;9.80;99.90;;;;;;4859567;29;20532;-62
2023/11/08 08:23:23;;;;;;;34.08;23.40;;;9.90;99.90;;;;;;4875070;29;20193;-62
2023/11/08 08:25:51;;;;;;;41.75;23.85;;;9.90;99.90;;;;;;4860475;29;20224;-61
2023/11/08 08:28:17;;;;;;;36.58;22.92;;;9.90;99.90;;;;;;4859379;29;20187;-60
2023/11/08 08:30:44;;;;;;;40.13;23.30;;;9.90;99.90;;;;;;4860723;29;20234;-61
2023/11/08 08:33:10;;;;;;;34.88;22.20;;;10.00;99.90;;;;;;4860294;29;20194;-61
2023/11/08 08:35:36;;;;;;;37.80;23.05;;;10.00;99.90;;;;;;4860582;29;20182;-61
2023/11/08 08:38:02;;;;;;;37.85;22.23;;;10.10;99.90;;;;;;4860210;29;20238;-61
2023/11/08 08:40:30;;;;;;;33.03;20.23;;;10.10;99.90;;;;;;4858945;29;20332;-61
2023/11/08 08:42:56;;;;;;;33.20;20.33;;;10.10;99.90;;;;;;4859156;29;20182;-59
2023/11/08 08:45:22;;;;;;;34.45;20.13;;;10.10;99.90;;;;;;4860204;29;20743;-61
2023/11/08 08:47:53;;;;;;;26.23;18.38;;;10.10;99.90;;;;;;4860177;29;20182;-61
2023/11/08 08:50:20;;;;;;;31.05;18.70;;;10.10;99.90;;;;;;4860321;29;20166;-57
2023/11/08 08:52:46;;;;;;;27.42;17.25;;;10.10;99.90;;;;;;4860117;29;20205;-62
2023/11/08 08:55:15;;;;;;;29.85;17.13;;;10.10;99.90;;;;;;4860281;29;20186;-61
2023/11/08 08:57:46;;;;;;;26.92;17.15;;;10.10;99.90;;;;;;4859155;29;20427;-59
2023/11/08 09:00:14;;;;;;;26.92;16.38;;;10.10;99.90;;;;;;4859526;29;20606;-63
2023/11/08 09:02:41;;;;;;;25.00;15.80;;;10.10;99.90;;;;;;4859699;29;20189;-60
2023/11/08 09:05:07;;;;;;;28.33;15.75;;;10.20;99.90;;;;;;4858563;29;20225;-63
2023/11/08 09:07:33;;;;;;;23.42;14.55;;;10.20;99.90;;;;;;4873837;29;20230;-61
2023/11/08 09:10:00;;;;;;;28.00;14.63;;;10.20;99.90;;;;;;4859763;29;20186;-62
2023/11/08 09:12:26;;;;;;;20.85;13.07;;;10.20;99.90;;;;;;4858357;29;20216;-60
2023/11/08 09:14:53;;;;;;;25.85;14.05;;;10.20;99.90;;;;;;4873641;29;20266;-59
2023/11/08 09:17:20;;;;;;;24.70;13.80;;;10.30;99.90;;;;;;4858337;29;20224;-61
2023/11/08 09:19:46;;;;;;;22.95;12.50;;;10.30;99.90;;;;;;4860162;29;20209;-61
2023/11/08 09:22:12;;;;;;;23.33;12.82;;;10.30;99.90;;;;;;4859493;29;20650;-61
2023/11/08 09:24:38;;;;;;;22.35;12.82;;;10.30;99.90;;;;;;4859592;29;20644;-62
2023/11/08 09:27:08;;;;;;;23.17;11.70;;;10.40;99.90;;;;;;4858311;29;20249;-61
2023/11/08 09:29:35;;;;;;;25.60;11.32;;;10.40;99.90;;;;;;4859902;29;20182;-62
2023/11/08 09:32:03;;;;;;;22.55;11.13;;;10.50;99.90;;;;;;4863812;29;20188;-62
2023/11/08 09:34:33;;;;;;;17.25;9.98;;;10.50;99.90;;;;;;4861960;29;20282;-60
2023/11/08 09:37:00;;;;;;;44.40;10.52;;;10.60;99.90;;;;;;4862435;29;20277;-62
2023/11/08 09:39:28;;;;;;;21.83;9.50;;;10.60;99.90;;;;;;4862233;29;20178;-62
2023/11/08 09:41:56;;;;;;;22.67;9.63;;;10.70;99.90;;;;;;4877401;29;20190;-61
2023/11/08 09:44:26;;;;;;;22.42;9.02;;;10.70;99.90;;;;;;4863088;29;20185;-61
2023/11/08 09:46:56;;;;;;;19.30;8.30;;;10.70;99.90;;;;;;4863126;29;20171;-61
2023/11/08 09:49:23;;;;;;;18.73;8.20;;;10.80;99.90;;;;;;4862813;29;20182;-61
2023/11/08 09:51:52;;;;;;;16.58;8.07;;;10.80;99.90;;;;;;4862763;29;20637;-61
2023/11/08 09:54:18;;;;;;;21.50;8.77;;;10.80;99.90;;;;;;4877518;29;20664;-62
2023/11/08 09:56:45;;;;;;;15.38;7.22;;;10.90;99.90;;;;;;4863186;29;20201;-60
2023/11/08 09:59:15;;;;;;;16.52;7.30;;;10.90;99.90;;;;;;4861730;29;20186;-63
2023/11/08 10:01:44;;;;;;;15.10;7.07;;;11.00;99.90;;;;;;4862867;29;20196;-63
2023/11/08 10:04:15;;;;;;;19.88;7.25;;;11.00;99.90;;;;;;4862689;29;20633;-61
2023/11/08 10:06:46;;;;;;;18.50;6.78;;;11.00;99.90;;;;;;4863589;29;20217;-60
2023/11/08 10:09:13;;;;;;;17.38;6.88;;;11.00;99.90;;;;;;4846682;29;20484;-62
2023/11/08 10:11:40;;;;;;;17.15;6.32;;;11.00;99.90;;;;;;4862632;29;20186;-62
2023/11/08 10:14:07;;;;;;;18.30;5.93;;;11.00;99.90;;;;;;4861285;29;20198;-60
2023/11/08 10:16:46;;;;;;;14.80;5.53;;;11.00;99.90;;;;;;4862386;29;20198;-60
2023/11/08 10:19:15;;;;;;;16.20;5.63;;;10.90;99.90;;;;;;4862772;29;20575;-61
2023/11/08 10:21:50;;;;;;;18.65;5.45;;;11.00;99.90;;;;;;4862785;29;20189;-59
2023/11/08 10:24:17;;;;;;;12.13;5.20;;;11.00;99.90;;;;;;4861653;29;20675;-58
2023/11/08 10:26:44;;;;;;;15.60;5.20;;;11.10;99.90;;;;;;4862170;29;20262;-61
2023/11/08 10:29:13;;;;;;;13.85;4.88;;;11.10;99.90;;;;;;4862532;29;20178;-56
2023/11/08 10:31:41;;;;;;;14.18;5.10;;;11.20;99.90;;;;;;4860875;29;20198;-60
2023/11/08 10:34:11;;;;;;;14.77;4.68;;;11.20;99.90;;;;;;4860976;29;20197;-61
2023/11/08 10:36:38;;;;;;;13.15;4.80;;;11.20;99.90;;;;;;4861470;29;20285;-60
2023/11/08 10:39:13;;;;;;;13.38;4.72;;;11.20;99.90;;;;;;4862016;29;20186;-61
2023/11/08 10:41:45;;;;;;;13.13;4.80;;;11.30;99.90;;;;;;4861971;29;20253;-62
2023/11/08 10:44:14;;;;;;;12.73;4.57;;;11.30;99.90;;;;;;4861878;29;20631;-60
2023/11/08 10:46:42;;;;;;;17.77;5.10;;;11.40;99.90;;;;;;4860527;29;20221;-61
2023/11/08 10:49:10;;;;;;;13.57;5.07;;;11.40;99.90;;;;;;4876176;29;20193;-60
2023/11/08 10:51:42;;;;;;;12.32;4.60;;;11.40;99.90;;;;;;4861921;29;20186;-62
2023/11/08 10:54:08;;;;;;;13.75;4.55;;;11.50;99.90;;;;;;4861769;29;20227;-60
2023/11/08 10:56:37;;;;;;;13.13;5.97;;;11.50;99.90;;;;;;4862025;29;20261;-62
2023/11/08 10:59:07;;;;;;;11.25;4.30;;;11.60;99.90;;;;;;4861156;29;20220;-63
2023/11/08 11:01:35;;;;;;;10.10;3.92;;;11.60;99.90;;;;;;4861897;29;20752;-62
2023/11/08 11:04:05;;;;;;;9.57;4.28;;;11.70;99.90;;;;;;4861704;29;20182;-61
2023/11/08 11:06:34;;;;;;;10.05;3.97;;;11.70;99.90;;;;;;4862171;29;20222;-60
2023/11/08 11:09:04;;;;;;;10.98;3.90;;;11.80;99.90;;;;;;4860792;29;20268;-63
2023/11/08 11:11:34;;;;;;;10.32;4.45;;;11.90;99.90;;;;;;4861690;29;20311;-60
2023/11/08 11:14:07;;;;;;;9.25;4.30;;;12.00;99.90;;;;;;4844953;29;20553;-60
2023/11/08 11:16:42;;;;;;;7.93;3.55;;;12.10;99.90;;;;;;4861480;29;20175;-60
2023/11/08 11:19:15;;;;;;;8.50;3.30;;;12.10;99.90;;;;;;4861316;29;20253;-61
2023/11/08 11:21:44;;;;;;;6.50;2.88;;;12.20;99.90;;;;;;4861483;29;20270;-60
2023/11/08 11:24:47;;;;;;;7.68;3.15;;;12.30;99.90;;;;;;4861182;29;20209;-60
2023/11/08 11:27:32;;;;;;;7.65;2.90;;;12.40;99.90;;;;;;4841169;29;20679;-60
2023/11/08 11:30:21;;;;;;;6.65;2.72;;;12.40;99.90;;;;;;4859815;29;20674;-61
2023/11/08 11:32:51;;;;;;;7.68;2.88;;;12.40;99.90;;;;;;4861243;29;20285;-61
2023/11/08 11:35:43;;;;;;;9.15;2.65;;;12.40;99.90;;;;;;4861015;29;20205;-64
2023/11/08 11:38:10;;;;;;;6.13;2.38;;;12.40;99.90;;;;;;4860767;29;20701;-60
2023/11/08 11:40:37;;;;;;;8.90;2.92;;;12.40;99.90;;;;;;4861135;29;20268;-61
2023/11/08 11:43:33;;;;;;;7.35;2.50;;;12.40;99.90;;;;;;4860524;29;20218;-61
2023/11/08 11:46:02;;;;;;;10.05;2.35;;;12.40;99.90;;;;;;4860784;29;20209;-63
2023/11/08 11:48:32;;;;;;;8.63;2.30;;;12.40;99.90;;;;;;4861090;29;20194;-61
2023/11/08 11:50:58;;;;;;;8.90;2.60;;;12.40;99.90;;;;;;4859707;29;20250;-62
2023/11/08 11:53:29;;;;;;;6.03;2.50;;;12.40;99.90;;;;;;4860160;29;20174;-63
2023/11/08 11:56:09;;;;;;;6.15;2.50;;;12.40;99.90;;;;;;4861287;29;20229;-62
2023/11/08 11:58:35;;;;;;;8.50;2.85;;;12.40;99.90;;;;;;4859505;29;20177;-61
2023/11/08 12:01:05;;;;;;;6.43;2.75;;;12.40;99.90;;;;;;4860365;29;20596;-62
2023/11/08 12:03:32;;;;;;;9.32;2.45;;;12.40;99.90;;;;;;4860721;29;20189;-63
2023/11/08 12:05:58;;;;;;;3.72;2.60;;;12.40;99.90;;;;;;4860585;29;20724;-62
2023/11/08 12:08:25;;;;;;;4.90;2.50;;;12.40;99.90;;;;;;4860828;29;20265;-60
2023/11/08 12:11:14;;;;;;;8.18;2.85;;;12.40;99.90;;;;;;4860292;29;20747;-60
2023/11/08 12:13:49;;;;;;;9.00;3.00;;;12.40;99.90;;;;;;4860503;29;20222;-60
2023/11/08 12:16:16;;;;;;;6.53;3.00;;;12.40;99.90;;;;;;4860848;29;20205;-61
2023/11/08 12:18:44;;;;;;;7.13;2.60;;;12.40;99.90;;;;;;4859310;29;20178;-62
2023/11/08 12:21:11;;;;;;;4.72;2.70;;;12.40;99.90;;;;;;4859002;29;20197;-62
2023/11/08 12:23:37;;;;;;;6.38;2.67;;;12.40;99.90;;;;;;4844181;29;20221;-60
2023/11/08 12:26:03;;;;;;;6.57;2.78;;;12.40;99.90;;;;;;4860354;29;20214;-63
2023/11/08 12:28:30;;;;;;;7.13;3.20;;;12.40;99.90;;;;;;4844095;29;20197;-62
2023/11/08 12:31:06;;;;;;;10.88;3.20;;;12.40;99.90;;;;;;4860277;29;20286;-60
2023/11/08 12:33:33;;;;;;;5.68;3.00;;;12.40;99.90;;;;;;4860269;29;20636;-62
2023/11/08 12:36:04;;;;;;;6.93;3.50;;;12.30;99.90;;;;;;4874461;29;20210;-61
2023/11/08 12:38:34;;;;;;;10.70;3.35;;;12.40;99.90;;;;;;4860442;29;20667;-62
2023/11/08 12:41:06;;;;;;;7.03;3.00;;;12.30;99.90;;;;;;4843786;29;20184;-61